Más de esta sección

METAR - AERONAUTICA

SADR31 MDSD 231400Z
METAR
METAR MDPP 231400Z 12010KT 9999 SCT018 SCT300 30/25 Q1014=
METAR MDST 231400Z 07008KT 050V110 9999 BKN018 BKN070 25/24 Q1015=
METAR MDPC 231400Z 11006KT 9999 BKN015 SCT070 BKN300 28/25 Q1015=
METAR MDBH 231400Z 00000KT 9999 SCT020 BKN080 27/24 Q1014=
METAR MDJB 231400Z 00000KT 9999 SCT017 BKN080 26/23 Q1015=
METAR MDSD 231400Z 00090KT 8000 -RA BKN016 BKN070 26/24 Q1015=
METAR MDLR 231400Z 00000KT 8000 -RA FEW016 BKN070 27/24 Q1015=
METAR MDCY 231400Z 00000KT 9999 BKN018 26/24 Q1015=
METAR MDAB 231400Z 09004KT 9999 BKN016 OVC070 25/23 Q1015=